sensor_id;sensor_type;location;lat;lon;timestamp;temperature;humidity
25250;DHT22;13201;51.148;13.738;2022-07-05T00:02:16;19.60;99.90
25250;DHT22;13201;51.148;13.738;2022-07-05T00:04:42;19.70;99.90
25250;DHT22;13201;51.148;13.738;2022-07-05T00:07:07;19.70;99.90
25250;DHT22;13201;51.148;13.738;2022-07-05T00:09:49;19.70;99.90
25250;DHT22;13201;51.148;13.738;2022-07-05T00:12:16;19.60;99.90
25250;DHT22;13201;51.148;13.738;2022-07-05T00:14:43;19.50;99.90
25250;DHT22;13201;51.148;13.738;2022-07-05T00:17:10;19.20;99.90
25250;DHT22;13201;51.148;13.738;2022-07-05T00:19:36;19.20;99.90
25250;DHT22;13201;51.148;13.738;2022-07-05T00:22:01;19.40;99.90
25250;DHT22;13201;51.148;13.738;2022-07-05T00:24:27;19.50;99.90
25250;DHT22;13201;51.148;13.738;2022-07-05T00:26:53;19.30;99.90
25250;DHT22;13201;51.148;13.738;2022-07-05T00:29:18;19.40;99.90
25250;DHT22;13201;51.148;13.738;2022-07-05T00:31:44;19.30;99.90
25250;DHT22;13201;51.148;13.738;2022-07-05T00:34:10;19.30;99.90
25250;DHT22;13201;51.148;13.738;2022-07-05T00:36:36;19.40;99.90
25250;DHT22;13201;51.148;13.738;2022-07-05T00:39:02;19.40;99.90
25250;DHT22;13201;51.148;13.738;2022-07-05T00:41:27;19.40;99.90
25250;DHT22;13201;51.148;13.738;2022-07-05T00:44:02;19.50;99.90
25250;DHT22;13201;51.148;13.738;2022-07-05T00:46:28;19.60;99.90
25250;DHT22;13201;51.148;13.738;2022-07-05T00:48:54;19.60;99.90
25250;DHT22;13201;51.148;13.738;2022-07-05T00:51:21;19.40;99.90
25250;DHT22;13201;51.148;13.738;2022-07-05T00:53:47;19.10;99.90
25250;DHT22;13201;51.148;13.738;2022-07-05T00:56:14;19.10;99.90
25250;DHT22;13201;51.148;13.738;2022-07-05T00:58:40;19.10;99.90
25250;DHT22;13201;51.148;13.738;2022-07-05T01:01:07;19.10;99.90
25250;DHT22;13201;51.148;13.738;2022-07-05T01:03:34;19.20;99.90
25250;DHT22;13201;51.148;13.738;2022-07-05T01:06:06;19.10;99.90
25250;DHT22;13201;51.148;13.738;2022-07-05T01:32:45;17.70;99.90
25250;DHT22;13201;51.148;13.738;2022-07-05T01:35:12;17.60;99.90
25250;DHT22;13201;51.148;13.738;2022-07-05T01:37:38;17.60;99.90
25250;DHT22;13201;51.148;13.738;2022-07-05T01:40:05;17.70;99.90
25250;DHT22;13201;51.148;13.738;2022-07-05T01:42:31;17.80;99.90
25250;DHT22;13201;51.148;13.738;2022-07-05T01:44:56;17.60;99.90
25250;DHT22;13201;51.148;13.738;2022-07-05T01:47:22;17.80;99.90
25250;DHT22;13201;51.148;13.738;2022-07-05T01:49:51;17.80;99.90
25250;DHT22;13201;51.148;13.738;2022-07-05T01:52:20;17.90;99.90
25250;DHT22;13201;51.148;13.738;2022-07-05T01:54:47;18.10;99.90
25250;DHT22;13201;51.148;13.738;2022-07-05T01:57:13;18.00;99.90
25250;DHT22;13201;51.148;13.738;2022-07-05T01:59:38;17.90;99.90
25250;DHT22;13201;51.148;13.738;2022-07-05T02:02:06;17.90;99.90
25250;DHT22;13201;51.148;13.738;2022-07-05T02:04:36;18.00;99.90
25250;DHT22;13201;51.148;13.738;2022-07-05T02:07:05;17.80;99.90
25250;DHT22;13201;51.148;13.738;2022-07-05T02:09:31;17.60;99.90
25250;DHT22;13201;51.148;13.738;2022-07-05T02:11:57;17.30;99.90
25250;DHT22;13201;51.148;13.738;2022-07-05T02:14:23;17.40;99.90
25250;DHT22;13201;51.148;13.738;2022-07-05T02:16:48;17.50;99.90
25250;DHT22;13201;51.148;13.738;2022-07-05T02:19:14;17.50;99.90
25250;DHT22;13201;51.148;13.738;2022-07-05T02:21:40;17.50;99.90
25250;DHT22;13201;51.148;13.738;2022-07-05T02:24:06;17.30;99.90
25250;DHT22;13201;51.148;13.738;2022-07-05T02:26:32;17.40;99.90
25250;DHT22;13201;51.148;13.738;2022-07-05T02:28:58;17.40;99.90
25250;DHT22;13201;51.148;13.738;2022-07-05T02:31:24;17.40;99.90
25250;DHT22;13201;51.148;13.738;2022-07-05T02:33:50;17.40;99.90
25250;DHT22;13201;51.148;13.738;2022-07-05T02:36:17;17.40;99.90
25250;DHT22;13201;51.148;13.738;2022-07-05T02:38:43;17.30;99.90
25250;DHT22;13201;51.148;13.738;2022-07-05T02:41:10;17.30;99.90
25250;DHT22;13201;51.148;13.738;2022-07-05T02:43:37;17.30;99.90
25250;DHT22;13201;51.148;13.738;2022-07-05T02:46:03;17.20;99.90
25250;DHT22;13201;51.148;13.738;2022-07-05T02:48:30;17.20;99.90
25250;DHT22;13201;51.148;13.738;2022-07-05T02:50:56;17.20;99.90
25250;DHT22;13201;51.148;13.738;2022-07-05T02:53:21;17.20;99.90
25250;DHT22;13201;51.148;13.738;2022-07-05T02:55:47;17.20;99.90
25250;DHT22;13201;51.148;13.738;2022-07-05T02:58:13;17.10;99.90
25250;DHT22;13201;51.148;13.738;2022-07-05T03:00:38;17.10;99.90
25250;DHT22;13201;51.148;13.738;2022-07-05T03:03:04;17.10;99.90
25250;DHT22;13201;51.148;13.738;2022-07-05T03:05:29;16.90;99.90
25250;DHT22;13201;51.148;13.738;2022-07-05T03:07:55;16.90;99.90
25250;DHT22;13201;51.148;13.738;2022-07-05T03:10:21;16.90;99.90
25250;DHT22;13201;51.148;13.738;2022-07-05T03:12:46;17.00;99.90
25250;DHT22;13201;51.148;13.738;2022-07-05T03:15:12;17.00;99.90
25250;DHT22;13201;51.148;13.738;2022-07-05T03:17:38;16.80;99.90
25250;DHT22;13201;51.148;13.738;2022-07-05T03:20:04;16.80;99.90
25250;DHT22;13201;51.148;13.738;2022-07-05T03:22:30;16.80;99.90
25250;DHT22;13201;51.148;13.738;2022-07-05T03:24:55;16.60;99.90
25250;DHT22;13201;51.148;13.738;2022-07-05T03:27:21;16.60;99.90
25250;DHT22;13201;51.148;13.738;2022-07-05T03:29:46;16.40;99.90
25250;DHT22;13201;51.148;13.738;2022-07-05T03:32:12;16.30;99.90
25250;DHT22;13201;51.148;13.738;2022-07-05T03:34:38;16.50;99.90
25250;DHT22;13201;51.148;13.738;2022-07-05T03:37:04;16.60;99.90
25250;DHT22;13201;51.148;13.738;2022-07-05T03:39:29;16.60;99.90
25250;DHT22;13201;51.148;13.738;2022-07-05T03:41:55;16.60;99.90
25250;DHT22;13201;51.148;13.738;2022-07-05T03:44:21;16.80;99.90
25250;DHT22;13201;51.148;13.738;2022-07-05T03:46:47;16.90;99.90
25250;DHT22;13201;51.148;13.738;2022-07-05T03:49:12;16.90;99.90
25250;DHT22;13201;51.148;13.738;2022-07-05T03:51:38;17.10;99.90
25250;DHT22;13201;51.148;13.738;2022-07-05T03:54:04;17.00;99.90
25250;DHT22;13201;51.148;13.738;2022-07-05T03:56:29;17.00;99.90
25250;DHT22;13201;51.148;13.738;2022-07-05T03:58:55;17.00;99.90
25250;DHT22;13201;51.148;13.738;2022-07-05T04:01:21;16.90;99.90
25250;DHT22;13201;51.148;13.738;2022-07-05T04:03:47;16.80;99.90
25250;DHT22;13201;51.148;13.738;2022-07-05T04:06:13;16.80;99.90
25250;DHT22;13201;51.148;13.738;2022-07-05T04:08:39;16.90;99.90
25250;DHT22;13201;51.148;13.738;2022-07-05T04:11:05;16.90;99.90
25250;DHT22;13201;51.148;13.738;2022-07-05T04:13:31;16.80;99.90
25250;DHT22;13201;51.148;13.738;2022-07-05T04:15:57;17.00;99.90
25250;DHT22;13201;51.148;13.738;2022-07-05T04:18:23;16.90;99.90
25250;DHT22;13201;51.148;13.738;2022-07-05T04:20:48;16.90;99.90
25250;DHT22;13201;51.148;13.738;2022-07-05T04:23:14;17.00;99.90
25250;DHT22;13201;51.148;13.738;2022-07-05T04:25:40;17.10;99.90
25250;DHT22;13201;51.148;13.738;2022-07-05T04:28:06;16.80;99.90
25250;DHT22;13201;51.148;13.738;2022-07-05T04:30:31;17.10;99.90
25250;DHT22;13201;51.148;13.738;2022-07-05T04:32:57;17.10;99.90
25250;DHT22;13201;51.148;13.738;2022-07-05T04:35:23;17.10;99.90
25250;DHT22;13201;51.148;13.738;2022-07-05T04:37:49;17.20;99.90
25250;DHT22;13201;51.148;13.738;2022-07-05T04:40:15;17.30;99.90
25250;DHT22;13201;51.148;13.738;2022-07-05T04:42:41;17.30;99.90
25250;DHT22;13201;51.148;13.738;2022-07-05T04:45:07;17.30;99.90
25250;DHT22;13201;51.148;13.738;2022-07-05T04:47:33;17.30;99.90
25250;DHT22;13201;51.148;13.738;2022-07-05T04:50:03;17.40;99.90
25250;DHT22;13201;51.148;13.738;2022-07-05T04:52:29;17.50;99.90
25250;DHT22;13201;51.148;13.738;2022-07-05T04:54:55;17.50;99.90
25250;DHT22;13201;51.148;13.738;2022-07-05T04:57:20;17.40;99.90
25250;DHT22;13201;51.148;13.738;2022-07-05T04:59:46;17.50;99.90
25250;DHT22;13201;51.148;13.738;2022-07-05T05:02:12;17.60;99.90
25250;DHT22;13201;51.148;13.738;2022-07-05T05:04:37;17.60;99.90
25250;DHT22;13201;51.148;13.738;2022-07-05T05:07:03;17.80;99.90
25250;DHT22;13201;51.148;13.738;2022-07-05T05:09:29;17.90;99.90
25250;DHT22;13201;51.148;13.738;2022-07-05T05:11:54;17.90;99.90
25250;DHT22;13201;51.148;13.738;2022-07-05T05:14:20;18.00;99.90
25250;DHT22;13201;51.148;13.738;2022-07-05T05:16:46;18.10;99.90
25250;DHT22;13201;51.148;13.738;2022-07-05T05:19:11;18.30;99.90
25250;DHT22;13201;51.148;13.738;2022-07-05T05:21:37;18.40;99.90
25250;DHT22;13201;51.148;13.738;2022-07-05T05:24:03;18.30;99.90
25250;DHT22;13201;51.148;13.738;2022-07-05T05:26:29;18.40;99.90
25250;DHT22;13201;51.148;13.738;2022-07-05T05:28:54;18.30;99.90
25250;DHT22;13201;51.148;13.738;2022-07-05T05:31:20;18.30;99.90
25250;DHT22;13201;51.148;13.738;2022-07-05T05:33:46;18.50;99.90
25250;DHT22;13201;51.148;13.738;2022-07-05T05:36:11;18.70;99.90
25250;DHT22;13201;51.148;13.738;2022-07-05T05:38:37;18.80;99.90
25250;DHT22;13201;51.148;13.738;2022-07-05T05:41:03;18.80;99.90
25250;DHT22;13201;51.148;13.738;2022-07-05T05:43:29;18.90;99.90
25250;DHT22;13201;51.148;13.738;2022-07-05T05:45:55;19.00;99.90
25250;DHT22;13201;51.148;13.738;2022-07-05T05:48:21;19.30;99.90
25250;DHT22;13201;51.148;13.738;2022-07-05T05:50:47;19.20;99.90
25250;DHT22;13201;51.148;13.738;2022-07-05T05:53:13;19.30;99.90
25250;DHT22;13201;51.148;13.738;2022-07-05T05:55:39;19.40;99.90
25250;DHT22;13201;51.148;13.738;2022-07-05T05:58:21;19.50;99.90
25250;DHT22;13201;51.148;13.738;2022-07-05T06:00:49;19.60;99.90
25250;DHT22;13201;51.148;13.738;2022-07-05T06:03:18;19.80;99.90
25250;DHT22;13201;51.148;13.738;2022-07-05T06:05:44;20.10;99.90
25250;DHT22;13201;51.148;13.738;2022-07-05T06:08:09;19.90;99.90
25250;DHT22;13201;51.148;13.738;2022-07-05T06:10:37;20.10;99.90
25250;DHT22;13201;51.148;13.738;2022-07-05T06:13:04;20.10;99.90
25250;DHT22;13201;51.148;13.738;2022-07-05T06:15:30;20.30;99.90
25250;DHT22;13201;51.148;13.738;2022-07-05T06:17:56;20.40;99.90
25250;DHT22;13201;51.148;13.738;2022-07-05T06:20:24;20.50;99.90
25250;DHT22;13201;51.148;13.738;2022-07-05T06:22:50;20.60;99.90
25250;DHT22;13201;51.148;13.738;2022-07-05T06:25:16;20.70;99.90
25250;DHT22;13201;51.148;13.738;2022-07-05T06:27:45;20.70;99.90
25250;DHT22;13201;51.148;13.738;2022-07-05T06:30:14;21.00;99.90
25250;DHT22;13201;51.148;13.738;2022-07-05T06:32:42;21.00;99.90
25250;DHT22;13201;51.148;13.738;2022-07-05T06:35:09;21.20;99.90
25250;DHT22;13201;51.148;13.738;2022-07-05T06:37:55;21.10;99.90
25250;DHT22;13201;51.148;13.738;2022-07-05T06:40:21;21.30;99.90
25250;DHT22;13201;51.148;13.738;2022-07-05T06:42:48;21.40;99.90
25250;DHT22;13201;51.148;13.738;2022-07-05T06:45:15;21.40;99.90
25250;DHT22;13201;51.148;13.738;2022-07-05T06:47:41;21.60;99.90
25250;DHT22;13201;51.148;13.738;2022-07-05T06:50:07;21.50;99.90
25250;DHT22;13201;51.148;13.738;2022-07-05T06:52:34;21.50;99.90
25250;DHT22;13201;51.148;13.738;2022-07-05T06:55:00;21.50;99.90
25250;DHT22;13201;51.148;13.738;2022-07-05T06:57:26;21.60;99.90
25250;DHT22;13201;51.148;13.738;2022-07-05T06:59:52;21.70;99.90
25250;DHT22;13201;51.148;13.738;2022-07-05T07:02:18;21.80;99.90
25250;DHT22;13201;51.148;13.738;2022-07-05T07:04:47;22.00;99.90
25250;DHT22;13201;51.148;13.738;2022-07-05T07:07:13;22.00;99.90
25250;DHT22;13201;51.148;13.738;2022-07-05T07:10:02;22.10;99.90
25250;DHT22;13201;51.148;13.738;2022-07-05T07:12:28;22.30;99.90
25250;DHT22;13201;51.148;13.738;2022-07-05T07:14:55;22.20;99.90
25250;DHT22;13201;51.148;13.738;2022-07-05T07:17:22;22.20;99.90
25250;DHT22;13201;51.148;13.738;2022-07-05T07:19:47;22.30;99.90
25250;DHT22;13201;51.148;13.738;2022-07-05T07:22:13;22.40;99.90
25250;DHT22;13201;51.148;13.738;2022-07-05T07:24:39;22.40;99.70
25250;DHT22;13201;51.148;13.738;2022-07-05T07:27:04;22.50;99.90
25250;DHT22;13201;51.148;13.738;2022-07-05T07:29:34;22.80;99.60
25250;DHT22;13201;51.148;13.738;2022-07-05T07:32:00;22.90;99.80
25250;DHT22;13201;51.148;13.738;2022-07-05T07:34:27;22.90;99.20
25250;DHT22;13201;51.148;13.738;2022-07-05T07:36:53;22.90;98.90
25250;DHT22;13201;51.148;13.738;2022-07-05T07:39:19;23.00;99.30
25250;DHT22;13201;51.148;13.738;2022-07-05T07:41:45;23.10;98.70
25250;DHT22;13201;51.148;13.738;2022-07-05T07:44:11;23.20;98.00
25250;DHT22;13201;51.148;13.738;2022-07-05T07:46:37;23.20;98.50
25250;DHT22;13201;51.148;13.738;2022-07-05T07:49:05;23.30;98.00
25250;DHT22;13201;51.148;13.738;2022-07-05T07:51:31;23.50;97.00
25250;DHT22;13201;51.148;13.738;2022-07-05T07:53:56;23.60;96.90
25250;DHT22;13201;51.148;13.738;2022-07-05T07:56:22;23.70;96.60
25250;DHT22;13201;51.148;13.738;2022-07-05T07:58:48;23.80;96.30
25250;DHT22;13201;51.148;13.738;2022-07-05T08:01:14;23.90;95.80
25250;DHT22;13201;51.148;13.738;2022-07-05T08:03:40;23.70;95.40
25250;DHT22;13201;51.148;13.738;2022-07-05T08:06:10;24.00;95.00
25250;DHT22;13201;51.148;13.738;2022-07-05T08:08:37;24.20;95.30
25250;DHT22;13201;51.148;13.738;2022-07-05T08:11:03;24.20;95.30
25250;DHT22;13201;51.148;13.738;2022-07-05T08:13:29;24.20;95.00
25250;DHT22;13201;51.148;13.738;2022-07-05T08:15:55;24.50;95.30
25250;DHT22;13201;51.148;13.738;2022-07-05T08:18:21;24.50;94.50
25250;DHT22;13201;51.148;13.738;2022-07-05T08:21:05;24.60;93.90
25250;DHT22;13201;51.148;13.738;2022-07-05T08:23:49;24.60;93.50
25250;DHT22;13201;51.148;13.738;2022-07-05T08:26:14;24.70;93.70
25250;DHT22;13201;51.148;13.738;2022-07-05T08:28:40;24.60;93.30
25250;DHT22;13201;51.148;13.738;2022-07-05T08:31:06;24.90;93.80
25250;DHT22;13201;51.148;13.738;2022-07-05T08:33:31;24.90;93.40
25250;DHT22;13201;51.148;13.738;2022-07-05T08:35:57;25.10;93.80
25250;DHT22;13201;51.148;13.738;2022-07-05T08:38:23;25.00;92.80
25250;DHT22;13201;51.148;13.738;2022-07-05T08:40:50;24.80;93.40
25250;DHT22;13201;51.148;13.738;2022-07-05T08:43:17;24.60;92.10
25250;DHT22;13201;51.148;13.738;2022-07-05T08:45:44;24.90;92.20
25250;DHT22;13201;51.148;13.738;2022-07-05T08:48:10;25.10;92.00
25250;DHT22;13201;51.148;13.738;2022-07-05T08:50:40;25.10;92.40
25250;DHT22;13201;51.148;13.738;2022-07-05T08:53:06;25.50;92.50
25250;DHT22;13201;51.148;13.738;2022-07-05T08:55:32;25.40;91.80
25250;DHT22;13201;51.148;13.738;2022-07-05T08:57:59;25.50;91.50
25250;DHT22;13201;51.148;13.738;2022-07-05T09:00:25;25.50;90.80
25250;DHT22;13201;51.148;13.738;2022-07-05T09:02:51;25.70;90.60
25250;DHT22;13201;51.148;13.738;2022-07-05T09:05:18;25.90;90.20
25250;DHT22;13201;51.148;13.738;2022-07-05T09:07:52;25.80;90.60
25250;DHT22;13201;51.148;13.738;2022-07-05T09:10:21;25.80;90.50
25250;DHT22;13201;51.148;13.738;2022-07-05T09:12:49;25.90;89.90
25250;DHT22;13201;51.148;13.738;2022-07-05T09:15:15;26.10;90.20
25250;DHT22;13201;51.148;13.738;2022-07-05T09:17:44;26.20;90.70
25250;DHT22;13201;51.148;13.738;2022-07-05T09:20:18;26.20;90.00
25250;DHT22;13201;51.148;13.738;2022-07-05T09:22:47;26.00;88.60
25250;DHT22;13201;51.148;13.738;2022-07-05T09:27:52;25.80;89.20
25250;DHT22;13201;51.148;13.738;2022-07-05T09:33:04;26.30;86.80
25250;DHT22;13201;51.148;13.738;2022-07-05T09:35:32;26.00;86.10
25250;DHT22;13201;51.148;13.738;2022-07-05T09:37:58;26.00;85.60
25250;DHT22;13201;51.148;13.738;2022-07-05T09:40:24;26.40;87.10
25250;DHT22;13201;51.148;13.738;2022-07-05T09:42:49;26.50;87.30
25250;DHT22;13201;51.148;13.738;2022-07-05T09:45:23;26.70;87.00
25250;DHT22;13201;51.148;13.738;2022-07-05T09:47:49;26.80;84.80
25250;DHT22;13201;51.148;13.738;2022-07-05T09:50:14;26.70;84.60
25250;DHT22;13201;51.148;13.738;2022-07-05T09:52:41;26.80;86.10
25250;DHT22;13201;51.148;13.738;2022-07-05T09:55:09;27.00;85.10
25250;DHT22;13201;51.148;13.738;2022-07-05T09:57:39;27.20;85.10
25250;DHT22;13201;51.148;13.738;2022-07-05T10:00:13;27.40;84.30
25250;DHT22;13201;51.148;13.738;2022-07-05T10:02:44;27.40;82.90
25250;DHT22;13201;51.148;13.738;2022-07-05T10:05:15;26.90;82.40
25250;DHT22;13201;51.148;13.738;2022-07-05T10:07:46;26.40;83.60
25250;DHT22;13201;51.148;13.738;2022-07-05T10:10:15;26.40;84.80
25250;DHT22;13201;51.148;13.738;2022-07-05T10:12:45;26.70;83.50
25250;DHT22;13201;51.148;13.738;2022-07-05T10:15:13;26.60;81.50
25250;DHT22;13201;51.148;13.738;2022-07-05T10:17:45;27.10;82.60
25250;DHT22;13201;51.148;13.738;2022-07-05T10:22:57;27.40;82.90
25250;DHT22;13201;51.148;13.738;2022-07-05T10:25:23;27.60;81.90
25250;DHT22;13201;51.148;13.738;2022-07-05T10:27:52;27.60;81.00
25250;DHT22;13201;51.148;13.738;2022-07-05T10:30:20;27.10;81.90
25250;DHT22;13201;51.148;13.738;2022-07-05T10:32:47;26.80;80.90
25250;DHT22;13201;51.148;13.738;2022-07-05T10:35:13;27.30;82.40
25250;DHT22;13201;51.148;13.738;2022-07-05T10:37:40;27.30;81.30
25250;DHT22;13201;51.148;13.738;2022-07-05T10:40:07;27.70;81.20
25250;DHT22;13201;51.148;13.738;2022-07-05T10:42:45;27.90;80.70
25250;DHT22;13201;51.148;13.738;2022-07-05T10:48:24;27.30;80.10
25250;DHT22;13201;51.148;13.738;2022-07-05T10:50:52;27.60;80.30
25250;DHT22;13201;51.148;13.738;2022-07-05T10:53:24;27.90;80.20
25250;DHT22;13201;51.148;13.738;2022-07-05T10:56:10;27.90;78.30
25250;DHT22;13201;51.148;13.738;2022-07-05T10:58:44;28.20;79.60
25250;DHT22;13201;51.148;13.738;2022-07-05T11:14:01;27.90;78.90
25250;DHT22;13201;51.148;13.738;2022-07-05T11:16:34;27.90;79.00
25250;DHT22;13201;51.148;13.738;2022-07-05T11:19:17;28.30;77.60
25250;DHT22;13201;51.148;13.738;2022-07-05T11:22:04;27.90;76.50
25250;DHT22;13201;51.148;13.738;2022-07-05T11:24:35;28.20;78.60
25250;DHT22;13201;51.148;13.738;2022-07-05T11:27:02;28.20;78.00
25250;DHT22;13201;51.148;13.738;2022-07-05T11:29:49;28.20;77.30
25250;DHT22;13201;51.148;13.738;2022-07-05T11:34:42;28.70;76.60
25250;DHT22;13201;51.148;13.738;2022-07-05T11:37:21;29.10;75.30
25250;DHT22;13201;51.148;13.738;2022-07-05T11:42:50;28.80;74.20
25250;DHT22;13201;51.148;13.738;2022-07-05T11:45:16;28.90;74.80
25250;DHT22;13201;51.148;13.738;2022-07-05T11:47:43;29.20;74.90
25250;DHT22;13201;51.148;13.738;2022-07-05T11:50:09;29.40;74.20
25250;DHT22;13201;51.148;13.738;2022-07-05T11:52:36;29.10;74.50
25250;DHT22;13201;51.148;13.738;2022-07-05T11:55:04;28.80;74.10
25250;DHT22;13201;51.148;13.738;2022-07-05T11:57:30;29.40;75.90
25250;DHT22;13201;51.148;13.738;2022-07-05T11:59:56;29.10;73.50
25250;DHT22;13201;51.148;13.738;2022-07-05T12:02:22;28.90;73.70
25250;DHT22;13201;51.148;13.738;2022-07-05T12:04:55;28.40;74.50
25250;DHT22;13201;51.148;13.738;2022-07-05T12:07:34;28.90;74.20
25250;DHT22;13201;51.148;13.738;2022-07-05T12:10:01;28.80;74.20
25250;DHT22;13201;51.148;13.738;2022-07-05T12:12:45;28.90;72.80
25250;DHT22;13201;51.148;13.738;2022-07-05T12:15:22;28.70;71.40
25250;DHT22;13201;51.148;13.738;2022-07-05T12:17:49;28.90;71.10
25250;DHT22;13201;51.148;13.738;2022-07-05T12:20:21;29.60;71.90
25250;DHT22;13201;51.148;13.738;2022-07-05T12:22:48;30.20;71.40
25250;DHT22;13201;51.148;13.738;2022-07-05T12:25:19;29.80;70.90
25250;DHT22;13201;51.148;13.738;2022-07-05T12:27:48;29.60;69.20
25250;DHT22;13201;51.148;13.738;2022-07-05T12:30:15;29.60;71.40
25250;DHT22;13201;51.148;13.738;2022-07-05T12:38:05;30.30;70.10
25250;DHT22;13201;51.148;13.738;2022-07-05T12:40:30;29.40;71.00
25250;DHT22;13201;51.148;13.738;2022-07-05T12:43:04;29.20;70.70
25250;DHT22;13201;51.148;13.738;2022-07-05T12:45:31;29.70;73.50
25250;DHT22;13201;51.148;13.738;2022-07-05T12:47:58;30.00;71.40
25250;DHT22;13201;51.148;13.738;2022-07-05T12:50:29;30.20;71.10
25250;DHT22;13201;51.148;13.738;2022-07-05T12:53:10;30.10;70.30
25250;DHT22;13201;51.148;13.738;2022-07-05T12:56:09;29.50;69.70
25250;DHT22;13201;51.148;13.738;2022-07-05T12:58:58;28.70;71.70
25250;DHT22;13201;51.148;13.738;2022-07-05T13:01:28;29.40;69.90
25250;DHT22;13201;51.148;13.738;2022-07-05T13:09:36;30.20;69.60
25250;DHT22;13201;51.148;13.738;2022-07-05T13:14:47;29.40;71.60
25250;DHT22;13201;51.148;13.738;2022-07-05T13:17:14;29.10;69.80
25250;DHT22;13201;51.148;13.738;2022-07-05T13:19:41;29.20;70.10
25250;DHT22;13201;51.148;13.738;2022-07-05T13:22:08;28.90;70.20
25250;DHT22;13201;51.148;13.738;2022-07-05T13:24:33;29.30;71.20
25250;DHT22;13201;51.148;13.738;2022-07-05T13:27:00;29.40;70.40
25250;DHT22;13201;51.148;13.738;2022-07-05T13:29:26;28.90;69.90
25250;DHT22;13201;51.148;13.738;2022-07-05T13:31:52;28.90;70.20
25250;DHT22;13201;51.148;13.738;2022-07-05T13:34:17;29.80;71.40
25250;DHT22;13201;51.148;13.738;2022-07-05T13:36:43;30.50;69.60
25250;DHT22;13201;51.148;13.738;2022-07-05T13:39:10;29.70;68.10
25250;DHT22;13201;51.148;13.738;2022-07-05T13:41:36;29.90;69.20
25250;DHT22;13201;51.148;13.738;2022-07-05T13:44:02;29.80;69.70
25250;DHT22;13201;51.148;13.738;2022-07-05T13:46:28;29.30;68.70
25250;DHT22;13201;51.148;13.738;2022-07-05T13:48:53;29.00;69.00
25250;DHT22;13201;51.148;13.738;2022-07-05T13:51:19;29.10;70.00
25250;DHT22;13201;51.148;13.738;2022-07-05T13:53:45;29.50;70.80
25250;DHT22;13201;51.148;13.738;2022-07-05T13:56:10;29.30;70.60
25250;DHT22;13201;51.148;13.738;2022-07-05T13:58:36;29.60;69.40
25250;DHT22;13201;51.148;13.738;2022-07-05T14:01:02;30.20;70.10
25250;DHT22;13201;51.148;13.738;2022-07-05T14:03:29;29.60;69.10
25250;DHT22;13201;51.148;13.738;2022-07-05T14:05:55;29.40;68.50
25250;DHT22;13201;51.148;13.738;2022-07-05T14:08:21;29.70;70.30
25250;DHT22;13201;51.148;13.738;2022-07-05T14:10:55;30.00;70.90
25250;DHT22;13201;51.148;13.738;2022-07-05T14:13:23;30.70;69.80
25250;DHT22;13201;51.148;13.738;2022-07-05T14:15:49;31.10;69.70
25250;DHT22;13201;51.148;13.738;2022-07-05T14:18:16;31.20;69.30
25250;DHT22;13201;51.148;13.738;2022-07-05T14:20:42;30.60;66.30
25250;DHT22;13201;51.148;13.738;2022-07-05T14:23:09;30.00;68.20
25250;DHT22;13201;51.148;13.738;2022-07-05T14:25:35;29.40;68.10
25250;DHT22;13201;51.148;13.738;2022-07-05T14:28:00;30.00;67.90
25250;DHT22;13201;51.148;13.738;2022-07-05T14:30:26;29.30;67.00
25250;DHT22;13201;51.148;13.738;2022-07-05T14:32:56;29.40;67.80
25250;DHT22;13201;51.148;13.738;2022-07-05T14:35:22;29.60;67.10
25250;DHT22;13201;51.148;13.738;2022-07-05T14:37:49;30.30;67.70
25250;DHT22;13201;51.148;13.738;2022-07-05T14:40:14;30.30;66.80
25250;DHT22;13201;51.148;13.738;2022-07-05T14:42:40;30.80;66.50
25250;DHT22;13201;51.148;13.738;2022-07-05T14:45:06;31.20;64.30
25250;DHT22;13201;51.148;13.738;2022-07-05T14:47:32;32.10;65.50
25250;DHT22;13201;51.148;13.738;2022-07-05T14:49:58;31.90;65.50
25250;DHT22;13201;51.148;13.738;2022-07-05T14:52:23;32.20;65.60
25250;DHT22;13201;51.148;13.738;2022-07-05T14:54:49;31.30;63.50
25250;DHT22;13201;51.148;13.738;2022-07-05T14:57:14;31.30;63.80
25250;DHT22;13201;51.148;13.738;2022-07-05T14:59:40;31.90;63.30
25250;DHT22;13201;51.148;13.738;2022-07-05T15:02:07;31.70;62.70
25250;DHT22;13201;51.148;13.738;2022-07-05T15:04:34;32.60;62.60
25250;DHT22;13201;51.148;13.738;2022-07-05T15:06:59;32.10;62.90
25250;DHT22;13201;51.148;13.738;2022-07-05T15:09:25;31.60;63.10
25250;DHT22;13201;51.148;13.738;2022-07-05T15:11:51;31.60;64.20
25250;DHT22;13201;51.148;13.738;2022-07-05T15:14:17;32.10;64.20
25250;DHT22;13201;51.148;13.738;2022-07-05T15:16:42;32.30;64.30
25250;DHT22;13201;51.148;13.738;2022-07-05T15:19:08;33.40;63.20
25250;DHT22;13201;51.148;13.738;2022-07-05T15:21:34;33.50;62.90
25250;DHT22;13201;51.148;13.738;2022-07-05T15:23:59;32.70;62.50
25250;DHT22;13201;51.148;13.738;2022-07-05T15:26:27;33.10;64.10
25250;DHT22;13201;51.148;13.738;2022-07-05T15:29:04;33.40;62.10
25250;DHT22;13201;51.148;13.738;2022-07-05T15:31:31;32.90;61.60
25250;DHT22;13201;51.148;13.738;2022-07-05T15:33:58;31.30;61.40
25250;DHT22;13201;51.148;13.738;2022-07-05T15:36:24;31.30;62.90
25250;DHT22;13201;51.148;13.738;2022-07-05T15:38:51;31.10;62.20
25250;DHT22;13201;51.148;13.738;2022-07-05T15:41:17;31.90;63.40
25250;DHT22;13201;51.148;13.738;2022-07-05T15:43:43;31.90;63.50
25250;DHT22;13201;51.148;13.738;2022-07-05T15:46:09;31.70;61.80
25250;DHT22;13201;51.148;13.738;2022-07-05T15:48:35;31.50;62.00
25250;DHT22;13201;51.148;13.738;2022-07-05T15:51:01;32.20;62.00
25250;DHT22;13201;51.148;13.738;2022-07-05T15:53:29;32.50;62.10
25250;DHT22;13201;51.148;13.738;2022-07-05T15:55:56;32.10;61.70
25250;DHT22;13201;51.148;13.738;2022-07-05T15:58:32;32.60;62.00
25250;DHT22;13201;51.148;13.738;2022-07-05T16:00:58;33.10;61.70
25250;DHT22;13201;51.148;13.738;2022-07-05T16:03:25;32.50;62.00
25250;DHT22;13201;51.148;13.738;2022-07-05T16:05:52;32.50;61.80
25250;DHT22;13201;51.148;13.738;2022-07-05T16:08:22;32.90;61.60
25250;DHT22;13201;51.148;13.738;2022-07-05T16:10:48;32.60;60.80
25250;DHT22;13201;51.148;13.738;2022-07-05T16:13:14;32.10;61.00
25250;DHT22;13201;51.148;13.738;2022-07-05T16:15:43;32.00;61.40
25250;DHT22;13201;51.148;13.738;2022-07-05T16:18:27;32.10;61.40
25250;DHT22;13201;51.148;13.738;2022-07-05T16:20:53;32.50;60.70
25250;DHT22;13201;51.148;13.738;2022-07-05T16:23:26;32.90;60.80
25250;DHT22;13201;51.148;13.738;2022-07-05T16:25:51;33.00;59.30